Time;durP1;ratioP1;P1;durP2;ratioP2;P2;SDS_P1;SDS_P2;PMS_P1;PMS_P2;Temp;Humidity;BMP_temperature;BMP_pressure;BME280_temperature;BME280_humidity;BME280_pressure;Samples;Min_cycle;Max_cycle;Signal;HPM_P1;HPM_P2
2022/06/04 00:01:31;;;;;;;0.40;0.40;;;19.00;84.00;;;;;;5031423;28;20606;-70
2022/06/04 00:04:20;;;;;;;0.40;0.40;;;19.00;84.10;;;;;;5031310;28;20687;-69
2022/06/04 00:07:08;;;;;;;0.47;0.47;;;19.10;84.30;;;;;;5032399;28;20198;-68
2022/06/04 00:16:13;;;;;;;0.40;0.40;;;18.90;86.20;;;;;;5033108;28;20209;-68
2022/06/04 00:19:03;;;;;;;0.40;0.40;;;18.90;85.30;;;;;;5033374;28;20201;-69
2022/06/04 00:21:51;;;;;;;0.40;0.40;;;19.00;86.20;;;;;;5033076;28;20231;-70
2022/06/04 00:24:41;;;;;;;0.40;0.40;;;18.80;86.70;;;;;;5032722;28;20253;-70
2022/06/04 00:27:29;;;;;;;0.40;0.40;;;18.80;87.20;;;;;;5032223;28;20631;-68
2022/06/04 00:30:18;;;;;;;0.40;0.40;;;18.80;87.40;;;;;;5032317;28;20760;-69
2022/06/04 00:33:06;;;;;;;0.40;0.40;;;18.80;87.70;;;;;;5032848;28;20225;-69
2022/06/04 00:35:58;;;;;;;0.40;0.40;;;18.80;88.20;;;;;;5033271;28;20858;-69
2022/06/04 00:38:48;;;;;;;0.40;0.40;;;18.80;88.90;;;;;;5032917;28;20230;-69
2022/06/04 00:41:44;;;;;;;0.40;0.40;;;18.70;89.20;;;;;;5033204;28;20210;-67
2022/06/04 00:45:21;;;;;;;0.40;0.40;;;18.70;89.40;;;;;;5032276;28;20239;-69
2022/06/04 00:48:10;;;;;;;0.40;0.40;;;18.60;89.70;;;;;;5032670;28;20277;-69
2022/06/04 00:51:00;;;;;;;0.40;0.40;;;18.60;90.10;;;;;;5033700;28;20201;-68
2022/06/04 00:53:48;;;;;;;0.40;0.40;;;18.60;90.30;;;;;;5031964;28;20233;-67
2022/06/04 00:56:53;;;;;;;0.50;0.50;;;18.60;90.40;;;;;;5032797;28;20229;-68
2022/06/04 00:59:52;;;;;;;0.50;0.50;;;18.60;90.60;;;;;;5031290;28;20197;-68
2022/06/04 01:03:00;;;;;;;0.40;0.40;;;18.60;90.90;;;;;;5032531;28;20228;-68
2022/06/04 01:06:13;;;;;;;0.40;0.40;;;18.60;91.20;;;;;;5038795;28;20213;-68
2022/06/04 01:09:25;;;;;;;0.40;0.40;;;18.50;91.40;;;;;;5033265;28;20198;-70
2022/06/04 01:12:29;;;;;;;0.40;0.40;;;18.40;91.70;;;;;;5032765;28;20232;-68
2022/06/04 01:15:25;;;;;;;0.40;0.40;;;18.40;92.20;;;;;;5033232;28;20230;-67
2022/06/04 01:18:26;;;;;;;0.40;0.40;;;18.40;92.20;;;;;;5033178;28;20300;-68
2022/06/04 01:21:22;;;;;;;0.40;0.40;;;18.30;92.40;;;;;;5033131;28;20626;-70
2022/06/04 01:24:51;;;;;;;0.40;0.40;;;18.30;92.70;;;;;;5033340;28;20259;-68
2022/06/04 01:27:45;;;;;;;0.40;0.40;;;18.30;93.00;;;;;;5032032;28;20220;-68
2022/06/04 01:30:39;;;;;;;0.40;0.40;;;18.30;93.40;;;;;;5032386;28;20201;-67
2022/06/04 01:33:34;;;;;;;0.40;0.40;;;18.20;93.60;;;;;;5032723;28;20222;-68
2022/06/04 01:36:32;;;;;;;0.50;0.50;;;18.10;93.80;;;;;;5032325;28;20586;-68
2022/06/04 01:39:24;;;;;;;0.50;0.50;;;18.10;94.20;;;;;;5032616;28;20272;-68
2022/06/04 01:42:11;;;;;;;0.40;0.40;;;18.10;94.50;;;;;;5033087;28;20645;-67
2022/06/04 01:45:04;;;;;;;0.40;0.40;;;18.00;94.80;;;;;;5032903;28;20206;-67
2022/06/04 01:47:56;;;;;;;0.40;0.40;;;18.00;95.10;;;;;;5033027;28;20205;-68
2022/06/04 01:50:48;;;;;;;0.40;0.40;;;18.00;95.50;;;;;;5033978;28;20198;-68
2022/06/04 01:53:40;;;;;;;0.40;0.40;;;17.90;95.70;;;;;;5036928;28;20706;-68
2022/06/04 01:56:35;;;;;;;0.40;0.40;;;17.90;95.90;;;;;;5036624;28;20702;-66
2022/06/04 01:59:28;;;;;;;0.50;0.50;;;17.90;96.30;;;;;;5036553;28;20197;-67
2022/06/04 02:02:23;;;;;;;0.40;0.40;;;17.80;96.50;;;;;;5035699;28;20221;-73
2022/06/04 02:05:17;;;;;;;0.40;0.40;;;17.80;96.70;;;;;;5037241;28;20281;-67
2022/06/04 02:08:08;;;;;;;0.40;0.40;;;17.80;97.00;;;;;;5037021;28;20741;-67
2022/06/04 02:11:02;;;;;;;0.40;0.40;;;17.70;97.30;;;;;;5036558;28;20252;-67
2022/06/04 02:13:55;;;;;;;0.40;0.40;;;17.70;97.50;;;;;;5036473;28;20230;-67
2022/06/04 02:16:47;;;;;;;0.40;0.40;;;17.60;97.80;;;;;;5037451;28;20394;-68
2022/06/04 02:19:36;;;;;;;0.40;0.40;;;17.60;98.00;;;;;;5036366;28;20198;-71
2022/06/04 02:22:24;;;;;;;0.45;0.45;;;17.60;98.40;;;;;;5037077;28;20244;-68
2022/06/04 02:25:14;;;;;;;0.50;0.50;;;17.50;98.80;;;;;;5036705;28;20202;-67
2022/06/04 02:28:05;;;;;;;0.40;0.40;;;17.50;99.10;;;;;;5036120;28;20194;-71
2022/06/04 02:31:02;;;;;;;0.40;0.40;;;17.50;99.40;;;;;;5036363;28;20689;-69
2022/06/04 02:33:56;;;;;;;0.50;0.50;;;17.50;99.60;;;;;;5037335;28;20230;-72
2022/06/04 02:36:52;;;;;;;0.47;0.47;;;17.50;99.80;;;;;;5036958;28;20198;-74
2022/06/04 02:39:43;;;;;;;0.47;0.47;;;17.50;99.90;;;;;;5036859;28;20206;-67
2022/06/04 02:42:36;;;;;;;0.50;0.50;;;17.40;99.90;;;;;;5035487;28;20237;-67
2022/06/04 02:45:28;;;;;;;0.40;0.40;;;17.30;99.90;;;;;;5036723;28;20201;-67
2022/06/04 02:48:24;;;;;;;0.43;0.43;;;17.20;99.90;;;;;;5036732;28;20198;-72
2022/06/04 02:51:17;;;;;;;0.40;0.40;;;17.10;99.90;;;;;;5036882;28;20264;-68
2022/06/04 02:54:11;;;;;;;0.40;0.40;;;16.90;99.90;;;;;;5036712;28;20205;-67
2022/06/04 02:57:01;;;;;;;0.40;0.40;;;16.90;99.90;;;;;;5036793;28;20583;-70
2022/06/04 02:59:50;;;;;;;0.50;0.50;;;16.90;99.90;;;;;;5035461;28;20202;-68
2022/06/04 03:02:39;;;;;;;0.40;0.40;;;16.90;99.90;;;;;;5035596;28;20240;-67
2022/06/04 03:05:29;;;;;;;0.50;0.50;;;16.90;99.90;;;;;;5036620;28;20596;-69
2022/06/04 03:08:17;;;;;;;0.50;0.50;;;16.90;99.90;;;;;;5035150;28;20253;-68
2022/06/04 03:11:07;;;;;;;0.40;0.40;;;16.90;99.90;;;;;;5036224;28;20198;-67
2022/06/04 03:13:55;;;;;;;0.40;0.40;;;16.90;99.90;;;;;;5036793;28;20229;-67
2022/06/04 03:16:45;;;;;;;0.40;0.40;;;16.90;99.90;;;;;;5036577;28;20763;-67
2022/06/04 03:19:33;;;;;;;0.40;0.40;;;16.90;99.90;;;;;;5035863;28;20221;-68
2022/06/04 03:22:22;;;;;;;0.40;0.40;;;16.90;99.90;;;;;;5035584;28;20226;-67
2022/06/04 03:25:11;;;;;;;0.50;0.50;;;16.90;99.90;;;;;;5035159;28;20206;-68
2022/06/04 03:28:00;;;;;;;0.40;0.40;;;16.80;99.90;;;;;;5034523;28;20547;-68
2022/06/04 03:30:51;;;;;;;0.40;0.40;;;16.90;99.90;;;;;;5036074;28;20687;-68
2022/06/04 03:33:39;;;;;;;0.50;0.50;;;16.80;99.90;;;;;;5035847;28;20218;-68
2022/06/04 03:36:27;;;;;;;0.40;0.40;;;16.90;99.90;;;;;;5035311;28;20233;-67
2022/06/04 03:39:15;;;;;;;0.50;0.50;;;16.90;99.90;;;;;;5034046;28;20228;-66
2022/06/04 03:42:05;;;;;;;0.40;0.40;;;16.90;99.90;;;;;;5035744;28;20222;-67
2022/06/04 03:44:55;;;;;;;0.50;0.50;;;17.00;99.90;;;;;;5036056;28;20201;-67
2022/06/04 03:47:43;;;;;;;0.40;0.40;;;17.10;99.90;;;;;;5033885;28;20259;-68
2022/06/04 03:50:32;;;;;;;0.40;0.40;;;17.20;99.90;;;;;;5035091;28;20260;-68
2022/06/04 03:53:20;;;;;;;0.40;0.40;;;17.20;99.90;;;;;;5035646;28;20224;-67
2022/06/04 03:56:09;;;;;;;0.40;0.40;;;17.30;99.90;;;;;;5035470;28;20630;-68
2022/06/04 03:58:57;;;;;;;0.40;0.40;;;17.30;99.90;;;;;;5035097;28;20222;-67
2022/06/04 04:01:53;;;;;;;0.50;0.50;;;17.40;99.90;;;;;;5033385;28;20667;-68
2022/06/04 04:04:41;;;;;;;0.40;0.40;;;17.40;99.90;;;;;;5035066;28;20654;-68
2022/06/04 04:07:29;;;;;;;0.40;0.40;;;17.50;99.90;;;;;;5034740;28;20287;-68
2022/06/04 04:10:18;;;;;;;0.40;0.40;;;17.50;99.90;;;;;;5035293;28;20221;-67
2022/06/04 04:13:07;;;;;;;0.50;0.50;;;17.40;99.90;;;;;;5034289;28;20226;-68
2022/06/04 04:15:56;;;;;;;0.40;0.40;;;17.40;99.90;;;;;;5035000;28;20230;-69
2022/06/04 04:18:46;;;;;;;0.40;0.40;;;17.30;99.90;;;;;;5034782;28;20758;-68
2022/06/04 04:21:40;;;;;;;0.40;0.40;;;17.20;99.90;;;;;;5035109;28;20194;-67
2022/06/04 04:24:29;;;;;;;0.40;0.40;;;17.20;99.90;;;;;;5034590;28;20217;-67
2022/06/04 04:27:17;;;;;;;0.40;0.40;;;17.20;99.90;;;;;;5033651;28;20198;-67
2022/06/04 04:30:08;;;;;;;1.60;1.50;;;17.10;99.90;;;;;;5034632;28;20198;-68
2022/06/04 04:32:57;;;;;;;0.40;0.40;;;17.10;99.90;;;;;;5034993;28;20226;-67
2022/06/04 04:35:48;;;;;;;0.40;0.40;;;17.20;99.90;;;;;;5034674;28;20216;-67
2022/06/04 04:38:36;;;;;;;0.40;0.40;;;17.10;99.90;;;;;;5034407;28;20210;-68
2022/06/04 04:41:25;;;;;;;0.40;0.40;;;17.20;99.90;;;;;;5034193;28;20206;-67
2022/06/04 04:44:13;;;;;;;0.40;0.40;;;17.30;99.90;;;;;;5032944;28;20197;-67
2022/06/04 04:47:01;;;;;;;0.40;0.40;;;17.30;99.90;;;;;;5034148;28;20630;-67
2022/06/04 04:49:50;;;;;;;0.40;0.40;;;17.40;99.90;;;;;;5033823;28;20213;-68
2022/06/04 04:52:39;;;;;;;0.40;0.40;;;17.40;99.90;;;;;;5033098;28;20222;-68
2022/06/04 04:55:28;;;;;;;0.40;0.40;;;17.40;99.90;;;;;;5032980;28;20220;-68
2022/06/04 04:58:16;;;;;;;0.47;0.47;;;17.40;99.90;;;;;;5034393;28;20206;-68
2022/06/04 05:01:04;;;;;;;0.40;0.40;;;17.40;99.90;;;;;;5033975;28;20718;-67
2022/06/04 05:03:54;;;;;;;0.40;0.40;;;17.40;99.90;;;;;;5033936;28;20222;-68
2022/06/04 05:06:49;;;;;;;0.40;0.40;;;17.40;99.90;;;;;;5032599;28;20202;-67
2022/06/04 05:09:39;;;;;;;0.40;0.40;;;17.40;99.90;;;;;;5033714;28;20205;-67
2022/06/04 05:12:27;;;;;;;0.40;0.40;;;17.40;99.90;;;;;;5033894;28;20352;-67
2022/06/04 05:15:15;;;;;;;0.50;0.50;;;17.40;99.90;;;;;;5034395;28;20198;-67
2022/06/04 05:18:03;;;;;;;0.40;0.40;;;17.40;99.90;;;;;;5033448;28;20202;-67
2022/06/04 05:20:52;;;;;;;0.40;0.40;;;17.50;99.90;;;;;;5033028;28;20210;-67
2022/06/04 05:23:40;;;;;;;0.40;0.40;;;17.50;99.90;;;;;;5033602;28;20224;-67
2022/06/04 05:26:30;;;;;;;0.50;0.50;;;17.50;99.90;;;;;;5031384;28;20212;-68
2022/06/04 05:29:19;;;;;;;0.50;0.50;;;17.60;99.90;;;;;;5032896;28;20256;-68
2022/06/04 05:32:09;;;;;;;0.40;0.40;;;17.70;99.90;;;;;;5032916;28;20715;-69
2022/06/04 05:34:57;;;;;;;0.40;0.40;;;17.80;99.90;;;;;;5033017;28;20194;-69
2022/06/04 05:37:46;;;;;;;0.50;0.50;;;17.80;99.90;;;;;;5032203;28;20202;-70
2022/06/04 05:40:34;;;;;;;0.40;0.40;;;17.90;99.90;;;;;;5031819;28;20726;-67
2022/06/04 05:43:23;;;;;;;0.45;0.45;;;17.90;99.90;;;;;;5032466;28;20229;-69
2022/06/04 05:46:14;;;;;;;0.50;0.50;;;18.00;99.90;;;;;;5033001;28;20622;-69
2022/06/04 05:49:03;;;;;;;0.50;0.50;;;18.00;99.90;;;;;;5033066;28;20202;-69
2022/06/04 05:51:52;;;;;;;0.50;0.50;;;18.00;99.90;;;;;;5033266;28;20205;-68
2022/06/04 05:54:40;;;;;;;0.40;0.40;;;18.10;99.90;;;;;;5033065;28;20202;-68
2022/06/04 05:57:28;;;;;;;0.40;0.40;;;18.10;99.90;;;;;;5033003;28;20251;-68
2022/06/04 06:00:18;;;;;;;0.40;0.40;;;18.30;99.90;;;;;;5032793;28;20293;-75
2022/06/04 06:03:06;;;;;;;0.50;0.50;;;18.40;99.70;;;;;;5028185;28;20233;-70
2022/06/04 06:05:54;;;;;;;0.40;0.40;;;18.60;99.80;;;;;;5032529;28;20225;-69
2022/06/04 06:08:42;;;;;;;0.40;0.40;;;18.60;99.30;;;;;;5033119;28;20210;-69
2022/06/04 06:11:31;;;;;;;0.50;0.50;;;18.60;99.00;;;;;;5031636;28;20198;-70
2022/06/04 06:14:20;;;;;;;0.40;0.40;;;18.70;98.90;;;;;;5032518;28;20201;-72
2022/06/04 06:17:10;;;;;;;0.40;0.40;;;18.90;98.80;;;;;;5031481;28;20206;-70
2022/06/04 06:19:58;;;;;;;0.40;0.40;;;18.90;98.70;;;;;;5031226;28;20296;-72
2022/06/04 06:22:47;;;;;;;0.40;0.40;;;19.00;98.40;;;;;;5031630;28;20408;-72
2022/06/04 06:25:35;;;;;;;0.40;0.40;;;18.90;98.20;;;;;;5031340;28;20206;-72
2022/06/04 06:28:24;;;;;;;0.40;0.40;;;18.90;97.90;;;;;;5030845;28;20560;-71
2022/06/04 06:31:17;;;;;;;0.40;0.40;;;18.90;98.30;;;;;;5028670;28;20190;-70
2022/06/04 06:34:06;;;;;;;0.40;0.40;;;19.10;98.20;;;;;;5030127;28;20202;-69
2022/06/04 06:36:56;;;;;;;0.40;0.40;;;19.30;97.80;;;;;;5030889;28;20202;-68
2022/06/04 06:39:44;;;;;;;0.40;0.40;;;19.50;97.70;;;;;;5034061;28;20217;-71
2022/06/04 06:42:32;;;;;;;0.40;0.40;;;19.70;97.30;;;;;;5033886;28;20279;-69
2022/06/04 06:45:21;;;;;;;0.40;0.40;;;19.90;96.70;;;;;;5033214;28;20670;-71
2022/06/04 06:48:09;;;;;;;0.40;0.40;;;20.00;96.50;;;;;;5032800;28;20206;-70
2022/06/04 06:50:59;;;;;;;0.40;0.40;;;20.10;96.20;;;;;;5033459;28;20194;-71
2022/06/04 06:53:47;;;;;;;0.40;0.40;;;20.20;95.80;;;;;;5033933;28;20222;-71
2022/06/04 06:56:37;;;;;;;0.40;0.40;;;20.20;95.80;;;;;;5034470;28;20205;-68
2022/06/04 06:59:26;;;;;;;0.50;0.50;;;20.20;95.80;;;;;;5033906;28;20208;-71
2022/06/04 07:02:14;;;;;;;0.55;0.55;;;20.30;95.40;;;;;;5034797;28;20703;-69
2022/06/04 07:05:02;;;;;;;0.40;0.40;;;20.20;95.70;;;;;;5033824;28;20264;-69
2022/06/04 07:07:52;;;;;;;0.50;0.50;;;20.20;95.30;;;;;;5033759;28;20206;-68
2022/06/04 07:10:40;;;;;;;0.40;0.40;;;20.40;95.40;;;;;;5033571;28;20255;-68
2022/06/04 07:13:28;;;;;;;0.40;0.40;;;20.60;94.80;;;;;;5034640;28;20634;-69
2022/06/04 07:16:16;;;;;;;0.40;0.40;;;20.60;94.20;;;;;;5036421;28;20198;-69
2022/06/04 07:19:05;;;;;;;0.40;0.40;;;20.60;93.70;;;;;;5033695;28;20206;-72
2022/06/04 07:21:55;;;;;;;0.40;0.40;;;20.50;93.70;;;;;;5032825;28;20202;-71
2022/06/04 07:24:44;;;;;;;0.50;0.50;;;20.40;93.30;;;;;;5033773;28;20214;-72
2022/06/04 07:27:33;;;;;;;0.52;0.52;;;20.50;93.40;;;;;;5033575;28;20252;-68
2022/06/04 07:30:21;;;;;;;0.40;0.40;;;20.40;93.00;;;;;;5033411;28;20569;-73
2022/06/04 07:33:09;;;;;;;0.50;0.50;;;20.50;93.40;;;;;;5033367;28;20225;-71
2022/06/04 07:35:58;;;;;;;0.40;0.40;;;20.70;93.30;;;;;;5034000;28;20278;-67
2022/06/04 07:38:47;;;;;;;0.40;0.40;;;20.60;92.60;;;;;;5033131;28;20194;-70
2022/06/04 07:41:39;;;;;;;0.40;0.40;;;20.70;92.80;;;;;;5033654;28;20740;-69
2022/06/04 07:44:27;;;;;;;0.40;0.40;;;20.80;92.10;;;;;;5032741;28;20580;-70
2022/06/04 07:47:15;;;;;;;0.40;0.40;;;21.00;91.90;;;;;;5033622;28;20206;-69
2022/06/04 07:50:04;;;;;;;0.40;0.40;;;21.20;91.10;;;;;;5032374;28;20594;-71
2022/06/04 07:52:52;;;;;;;0.40;0.40;;;21.40;90.80;;;;;;5032977;28;20222;-69
2022/06/04 07:55:42;;;;;;;0.40;0.40;;;21.60;90.00;;;;;;5033518;28;20774;-69
2022/06/04 07:58:31;;;;;;;0.40;0.40;;;21.80;89.30;;;;;;5013753;28;20226;-68
2022/06/04 08:01:22;;;;;;;0.40;0.40;;;22.00;88.80;;;;;;5013446;28;20222;-72
2022/06/04 08:04:11;;;;;;;0.40;0.40;;;22.00;88.90;;;;;;5012594;28;20625;-69
2022/06/04 08:07:01;;;;;;;0.40;0.40;;;22.00;87.90;;;;;;5012951;28;20209;-67
2022/06/04 08:09:50;;;;;;;0.40;0.40;;;21.80;88.20;;;;;;5013375;28;20690;-68
2022/06/04 08:12:41;;;;;;;0.40;0.40;;;21.80;88.00;;;;;;5013459;28;20227;-70
2022/06/04 08:15:31;;;;;;;0.70;0.70;;;21.90;87.70;;;;;;5012875;28;20225;-70
2022/06/04 08:18:19;;;;;;;1.63;1.15;;;22.10;86.90;;;;;;5012167;28;20202;-68
2022/06/04 08:21:08;;;;;;;1.05;0.73;;;22.10;86.90;;;;;;5012942;28;20264;-68
2022/06/04 08:23:56;;;;;;;0.40;0.40;;;22.00;86.50;;;;;;5011934;28;20219;-69
2022/06/04 08:26:47;;;;;;;0.40;0.40;;;22.20;87.50;;;;;;5013107;28;20265;-73
2022/06/04 08:29:38;;;;;;;0.50;0.50;;;22.40;87.10;;;;;;5011862;28;20203;-68
2022/06/04 08:32:36;;;;;;;0.50;0.50;;;22.40;86.30;;;;;;5013045;28;20214;-69
2022/06/04 08:35:24;;;;;;;0.45;0.45;;;22.40;87.20;;;;;;5012646;28;20199;-69
2022/06/04 08:38:12;;;;;;;0.40;0.40;;;22.50;86.20;;;;;;5012422;28;20249;-69
2022/06/04 08:41:02;;;;;;;0.40;0.40;;;22.60;85.50;;;;;;5011514;28;20221;-71
2022/06/04 08:43:56;;;;;;;0.40;0.40;;;22.60;85.00;;;;;;5012863;28;20723;-69
2022/06/04 08:46:55;;;;;;;0.40;0.40;;;22.70;85.00;;;;;;5012974;28;20257;-70
2022/06/04 08:49:48;;;;;;;0.40;0.40;;;22.90;85.50;;;;;;5012519;28;20585;-70
2022/06/04 08:52:40;;;;;;;0.40;0.40;;;23.10;83.90;;;;;;5012088;28;20588;-69
2022/06/04 08:59:02;;;;;;;0.40;0.40;;;23.10;84.00;;;;;;5012020;28;20198;-68
2022/06/04 09:01:54;;;;;;;0.40;0.40;;;23.30;85.00;;;;;;5013604;28;20211;-68
2022/06/04 09:04:59;;;;;;;0.40;0.40;;;23.60;84.60;;;;;;5012339;28;20203;-68
2022/06/04 09:07:52;;;;;;;0.40;0.40;;;23.60;84.60;;;;;;5012351;28;20202;-69
2022/06/04 09:10:43;;;;;;;0.43;0.43;;;23.40;82.70;;;;;;5011720;28;20203;-70
2022/06/04 09:13:36;;;;;;;0.40;0.40;;;23.20;83.60;;;;;;5019638;28;20230;-68
2022/06/04 09:16:30;;;;;;;0.40;0.40;;;23.20;85.10;;;;;;5013271;28;20198;-70
2022/06/04 09:19:22;;;;;;;0.40;0.40;;;23.40;85.60;;;;;;5011843;28;20695;-69
2022/06/04 09:22:19;;;;;;;0.40;0.40;;;23.70;86.30;;;;;;5012262;28;20261;-68
2022/06/04 09:25:12;;;;;;;0.40;0.40;;;24.10;84.40;;;;;;5012029;28;20209;-69
2022/06/04 09:28:10;;;;;;;1.33;1.33;;;24.50;83.20;;;;;;5010632;28;20195;-68
2022/06/04 09:31:09;;;;;;;0.60;0.60;;;24.90;82.80;;;;;;5012527;28;20233;-70
2022/06/04 09:34:01;;;;;;;0.40;0.40;;;25.00;78.50;;;;;;5011968;28;20703;-68
2022/06/04 09:36:51;;;;;;;0.40;0.40;;;25.00;78.90;;;;;;5011306;28;20199;-68
2022/06/04 09:39:43;;;;;;;0.40;0.40;;;25.20;79.40;;;;;;5012469;28;20719;-68
2022/06/04 09:42:32;;;;;;;0.40;0.40;;;25.30;79.00;;;;;;5011791;28;20226;-70
2022/06/04 09:45:23;;;;;;;0.60;0.60;;;25.60;77.80;;;;;;5012797;28;20206;-68
2022/06/04 09:48:21;;;;;;;0.40;0.40;;;25.90;76.80;;;;;;5012103;28;20677;-68
2022/06/04 09:51:17;;;;;;;0.40;0.40;;;25.90;72.90;;;;;;5010561;28;20210;-68
2022/06/04 09:54:06;;;;;;;0.40;0.40;;;26.00;74.10;;;;;;5012639;28;20218;-69
2022/06/04 09:57:01;;;;;;;0.43;0.43;;;26.40;74.80;;;;;;5021844;28;20197;-68
2022/06/04 09:59:54;;;;;;;1.38;1.38;;;26.70;73.70;;;;;;5031687;28;20202;-70
2022/06/04 10:02:53;;;;;;;0.40;0.40;;;26.80;73.00;;;;;;5031620;28;20651;-68
2022/06/04 10:05:50;;;;;;;0.40;0.40;;;26.80;72.10;;;;;;5032170;28;20199;-69
2022/06/04 10:11:59;;;;;;;0.40;0.40;;;26.80;72.70;;;;;;5032937;28;20197;-69
2022/06/04 10:14:59;;;;;;;0.40;0.40;;;26.90;71.40;;;;;;5034780;28;20206;-70
2022/06/04 10:17:59;;;;;;;0.40;0.40;;;27.10;71.60;;;;;;5034854;28;20198;-69
2022/06/04 10:21:00;;;;;;;0.40;0.40;;;27.30;71.80;;;;;;5035142;28;20284;-69
2022/06/04 10:23:51;;;;;;;0.40;0.40;;;27.60;71.00;;;;;;5035348;28;20226;-69
2022/06/04 10:27:03;;;;;;;0.40;0.40;;;27.60;70.90;;;;;;5034712;28;20264;-67
2022/06/04 10:30:06;;;;;;;0.40;0.40;;;27.80;70.40;;;;;;5034141;28;20240;-69
2022/06/04 10:33:14;;;;;;;0.40;0.40;;;27.80;68.80;;;;;;5034390;28;20236;-69
2022/06/04 10:36:17;;;;;;;2.17;1.30;;;27.60;68.70;;;;;;5034575;28;20201;-70
2022/06/04 10:39:16;;;;;;;0.40;0.40;;;27.00;70.00;;;;;;5034724;28;20205;-70
2022/06/04 10:42:19;;;;;;;0.40;0.40;;;26.40;69.50;;;;;;5034856;28;20221;-69
2022/06/04 10:45:16;;;;;;;0.40;0.40;;;26.00;70.20;;;;;;5034382;28;20202;-68
2022/06/04 10:48:10;;;;;;;0.40;0.40;;;25.80;72.10;;;;;;5035377;28;20198;-69
2022/06/04 10:54:16;;;;;;;0.40;0.40;;;25.80;74.40;;;;;;5035620;28;20195;-68
2022/06/04 10:57:19;;;;;;;0.40;0.40;;;25.80;72.90;;;;;;5035437;28;20257;-68
2022/06/04 11:00:13;;;;;;;0.40;0.40;;;26.00;73.60;;;;;;5034291;28;20209;-68
2022/06/04 11:03:07;;;;;;;0.40;0.40;;;26.20;71.60;;;;;;5033829;28;20237;-69
2022/06/04 11:06:02;;;;;;;0.40;0.40;;;26.30;72.30;;;;;;5033182;28;20209;-70
2022/06/04 11:08:54;;;;;;;0.40;0.40;;;26.50;71.20;;;;;;5033903;28;20206;-68
2022/06/04 11:11:49;;;;;;;0.40;0.40;;;26.80;71.50;;;;;;5033353;28;20612;-68
2022/06/04 11:14:46;;;;;;;0.60;0.60;;;27.00;69.00;;;;;;5033810;28;20202;-68
2022/06/04 11:17:44;;;;;;;0.50;0.50;;;27.40;68.60;;;;;;5033626;28;20225;-68
2022/06/04 11:20:37;;;;;;;0.73;0.73;;;27.80;67.50;;;;;;5033377;28;20205;-68
2022/06/04 11:23:40;;;;;;;0.40;0.40;;;27.80;66.30;;;;;;5031294;28;20614;-68
2022/06/04 11:26:32;;;;;;;0.40;0.40;;;27.90;67.30;;;;;;5032852;28;20201;-68
2022/06/04 11:29:20;;;;;;;0.70;0.70;;;28.30;67.00;;;;;;5033138;28;20206;-68
2022/06/04 11:32:20;;;;;;;0.40;0.40;;;28.70;66.40;;;;;;5033664;28;20581;-68
2022/06/04 11:35:28;;;;;;;0.40;0.40;;;29.10;65.50;;;;;;5033168;28;20208;-68
2022/06/04 11:38:35;;;;;;;0.40;0.40;;;29.40;64.30;;;;;;5031845;28;20703;-68
2022/06/04 11:41:31;;;;;;;0.40;0.40;;;29.30;63.60;;;;;;5033130;28;20210;-68
2022/06/04 11:44:49;;;;;;;0.40;0.40;;;29.20;63.80;;;;;;5032170;28;20682;-68
2022/06/04 11:47:57;;;;;;;0.40;0.40;;;29.00;63.90;;;;;;5032925;28;20205;-68
2022/06/04 11:50:51;;;;;;;0.40;0.40;;;28.90;64.30;;;;;;5032339;28;20212;-68
2022/06/04 11:53:47;;;;;;;0.40;0.40;;;28.80;64.00;;;;;;5032459;28;20236;-68
2022/06/04 11:56:48;;;;;;;0.40;0.40;;;28.80;65.00;;;;;;5032945;28;20201;-68
2022/06/04 11:59:47;;;;;;;0.40;0.40;;;28.90;65.30;;;;;;5032739;28;20201;-68
2022/06/04 12:02:40;;;;;;;0.40;0.40;;;29.20;64.70;;;;;;5032188;28;20221;-68
2022/06/04 12:05:40;;;;;;;0.40;0.40;;;29.60;64.20;;;;;;5032513;28;20272;-68
2022/06/04 12:08:31;;;;;;;0.40;0.40;;;29.60;63.10;;;;;;5032519;28;20198;-68
2022/06/04 12:11:30;;;;;;;0.40;0.40;;;29.70;63.70;;;;;;5033024;28;20213;-68
2022/06/04 12:14:27;;;;;;;1.33;1.23;;;29.60;63.60;;;;;;5032681;28;20677;-68
2022/06/04 12:17:21;;;;;;;0.40;0.40;;;29.40;64.20;;;;;;5032955;28;20608;-68
2022/06/04 12:26:48;;;;;;;0.40;0.40;;;29.80;63.90;;;;;;5032922;28;20205;-68
2022/06/04 12:29:45;;;;;;;0.40;0.40;;;30.10;62.30;;;;;;5032292;28;20647;-67
2022/06/04 12:32:36;;;;;;;0.40;0.40;;;30.00;61.80;;;;;;5032336;28;20666;-68
2022/06/04 12:35:25;;;;;;;0.40;0.40;;;29.80;62.70;;;;;;5032596;28;20228;-67
2022/06/04 12:38:15;;;;;;;0.40;0.40;;;30.00;60.90;;;;;;5032420;28;20260;-67
2022/06/04 12:41:11;;;;;;;0.40;0.40;;;30.00;61.70;;;;;;5033022;28;20629;-67
2022/06/04 12:44:01;;;;;;;0.40;0.40;;;30.00;62.20;;;;;;5032216;28;20300;-67
2022/06/04 12:46:51;;;;;;;0.40;0.40;;;29.80;62.70;;;;;;5033335;28;20209;-67
2022/06/04 12:49:47;;;;;;;0.40;0.40;;;29.60;63.10;;;;;;5032488;28;20198;-67
2022/06/04 12:52:44;;;;;;;0.40;0.40;;;29.40;63.40;;;;;;5032719;28;20702;-68
2022/06/04 12:55:37;;;;;;;0.40;0.40;;;29.40;63.80;;;;;;5032443;28;20208;-67
2022/06/04 12:58:32;;;;;;;0.40;0.40;;;29.60;63.10;;;;;;5013318;28;20698;-68
2022/06/04 13:01:33;;;;;;;0.40;0.40;;;29.60;62.90;;;;;;5012933;28;20671;-68
2022/06/04 13:04:25;;;;;;;0.40;0.40;;;29.60;63.70;;;;;;5013103;28;20231;-67
2022/06/04 13:07:21;;;;;;;0.40;0.40;;;29.50;63.60;;;;;;5013119;28;20205;-67
2022/06/04 13:10:21;;;;;;;0.40;0.40;;;29.30;63.50;;;;;;5014447;28;20694;-68
2022/06/04 13:13:22;;;;;;;3.28;3.05;;;29.30;63.60;;;;;;5012968;28;20218;-67
2022/06/04 13:16:19;;;;;;;0.40;0.40;;;29.60;63.30;;;;;;5011935;28;20214;-67
2022/06/04 13:19:21;;;;;;;0.40;0.40;;;30.00;62.60;;;;;;5011654;28;20202;-68
2022/06/04 13:22:18;;;;;;;0.50;0.50;;;30.90;62.00;;;;;;5011470;28;20244;-68
2022/06/04 13:25:13;;;;;;;0.68;0.68;;;31.40;62.40;;;;;;5010833;28;20205;-68
2022/06/04 13:28:01;;;;;;;0.40;0.40;;;31.00;60.00;;;;;;5012156;28;20199;-68
2022/06/04 13:30:52;;;;;;;0.40;0.40;;;30.80;61.10;;;;;;5012362;28;20225;-68
2022/06/04 13:33:42;;;;;;;0.40;0.40;;;30.80;62.10;;;;;;5010908;28;20268;-68
2022/06/04 13:36:31;;;;;;;1.23;1.13;;;30.60;61.60;;;;;;5010849;28;20202;-68
2022/06/04 13:39:20;;;;;;;0.50;0.50;;;30.50;61.60;;;;;;5011649;28;20210;-68
2022/06/04 13:42:17;;;;;;;0.40;0.40;;;30.60;61.70;;;;;;5012096;28;20248;-68
2022/06/04 13:45:31;;;;;;;0.40;0.40;;;31.90;59.70;;;;;;5011414;28;20252;-68
2022/06/04 13:48:21;;;;;;;0.40;0.40;;;33.30;57.40;;;;;;5011707;28;20326;-68
2022/06/04 13:51:21;;;;;;;0.40;0.40;;;34.10;56.70;;;;;;5011297;28;20495;-68
2022/06/04 13:54:22;;;;;;;0.40;0.40;;;35.40;54.80;;;;;;5011772;28;20199;-68
2022/06/04 13:57:19;;;;;;;0.40;0.40;;;35.40;53.40;;;;;;5022991;28;20621;-68
2022/06/04 14:00:14;;;;;;;0.40;0.40;;;34.80;54.00;;;;;;5030677;28;20209;-68
2022/06/04 14:03:09;;;;;;;0.50;0.50;;;36.30;52.10;;;;;;5031288;28;20225;-68
2022/06/04 14:05:56;;;;;;;0.40;0.40;;;37.40;51.90;;;;;;5031417;28;20353;-68
2022/06/04 14:08:52;;;;;;;0.40;0.40;;;37.90;50.50;;;;;;5031032;28;20205;-68
2022/06/04 14:11:51;;;;;;;0.40;0.40;;;37.50;50.30;;;;;;5031200;28;20206;-68
2022/06/04 14:14:57;;;;;;;0.40;0.40;;;37.00;50.50;;;;;;5031147;28;20689;-68
2022/06/04 14:18:20;;;;;;;0.40;0.40;;;36.80;50.70;;;;;;5030798;28;20201;-68
2022/06/04 14:21:22;;;;;;;0.40;0.40;;;37.00;49.80;;;;;;5030755;28;20206;-68
2022/06/04 14:24:24;;;;;;;0.40;0.40;;;36.60;50.20;;;;;;5031014;28;20740;-68
2022/06/04 14:27:22;;;;;;;0.40;0.40;;;35.30;51.00;;;;;;5030580;28;20202;-68
2022/06/04 14:30:19;;;;;;;0.40;0.40;;;34.90;51.50;;;;;;5030405;28;20202;-68
2022/06/04 14:33:17;;;;;;;0.40;0.40;;;35.60;50.80;;;;;;5030437;28;20293;-68
2022/06/04 14:36:07;;;;;;;6.40;4.88;;;36.50;50.70;;;;;;5030282;28;20209;-68
2022/06/04 14:38:56;;;;;;;0.40;0.40;;;38.70;48.40;;;;;;5030661;28;20225;-68
2022/06/04 14:42:03;;;;;;;0.50;0.50;;;40.20;45.30;;;;;;5030340;28;20280;-68
2022/06/04 14:45:25;;;;;;;0.40;0.40;;;40.10;45.70;;;;;;5031165;28;20451;-68
2022/06/04 14:48:54;;;;;;;0.40;0.40;;;39.80;45.60;;;;;;5029690;28;20606;-68
2022/06/04 14:52:14;;;;;;;0.40;0.40;;;40.00;45.00;;;;;;4969603;28;20210;-68
2022/06/04 14:55:09;;;;;;;0.40;0.40;;;39.80;44.60;;;;;;5030469;28;20690;-68
2022/06/04 14:58:30;;;;;;;0.57;0.50;;;40.00;43.80;;;;;;5013356;28;20337;-68
2022/06/04 15:01:38;;;;;;;0.50;0.50;;;39.00;43.70;;;;;;5014646;28;20206;-68
2022/06/04 15:04:54;;;;;;;0.50;0.50;;;38.40;44.30;;;;;;5015519;28;20214;-68
2022/06/04 15:08:04;;;;;;;0.40;0.40;;;39.20;43.50;;;;;;5017431;28;20203;-68
2022/06/04 15:11:08;;;;;;;0.40;0.40;;;40.10;42.80;;;;;;5014028;28;20190;-68
2022/06/04 15:14:08;;;;;;;0.40;0.40;;;40.20;42.40;;;;;;5014221;28;20226;-68
2022/06/04 15:17:08;;;;;;;0.40;0.40;;;39.70;42.60;;;;;;5014370;28;20194;-68
2022/06/04 15:20:07;;;;;;;0.40;0.40;;;39.50;43.50;;;;;;5014070;28;20218;-68
2022/06/04 15:23:12;;;;;;;0.50;0.50;;;40.50;41.80;;;;;;5013306;28;20234;-68
2022/06/04 15:26:04;;;;;;;0.50;0.50;;;41.40;41.80;;;;;;5013346;28;20202;-68
2022/06/04 15:35:21;;;;;;;0.50;0.50;;;37.80;43.90;;;;;;5014087;28;20270;-68